Time;durP1;ratioP1;P1;durP2;ratioP2;P2;SDS_P1;SDS_P2;PMS_P1;PMS_P2;Temp;Humidity;BMP_temperature;BMP_pressure;BME280_temperature;BME280_humidity;BME280_pressure;Samples;Min_cycle;Max_cycle;Signal;HPM_P1;HPM_P2
2022/03/28 00:03:29;;;;;;;6.95;4.95;;;;;;;;;;8151843;28;20043;-59
2022/03/28 00:07:29;;;;;;;7.83;5.63;;;;;;;;;;8152537;28;20037;-59
2022/03/28 00:11:30;;;;;;;8.27;6.00;;;;;;;;;;8152740;28;20266;-58
2022/03/28 00:15:30;;;;;;;6.25;5.40;;;;;;;;;;8151950;28;20039;-59
2022/03/28 00:19:30;;;;;;;7.90;5.38;;;;;;;;;;8152597;28;20027;-59
2022/03/28 00:23:32;;;;;;;7.47;5.85;;;;;;;;;;8151583;28;20070;-59
2022/03/28 00:27:32;;;;;;;8.23;5.55;;;;;;;;;;8152641;28;20054;-59
2022/03/28 00:31:32;;;;;;;6.60;5.63;;;;;;;;;;8151106;28;20043;-59
2022/03/28 00:35:33;;;;;;;6.68;5.80;;;;;;;;;;8153577;28;20036;-59
2022/03/28 00:39:33;;;;;;;6.95;5.45;;;;;;;;;;8150887;28;20535;-59
2022/03/28 00:43:34;;;;;;;7.78;6.07;;;;;;;;;;8154048;28;20093;-60
2022/03/28 00:47:34;;;;;;;7.38;5.93;;;;;;;;;;8150495;28;20126;-59
2022/03/28 00:51:36;;;;;;;7.40;6.28;;;;;;;;;;8150855;28;20031;-59
2022/03/28 00:55:36;;;;;;;8.95;6.25;;;;;;;;;;8152252;28;20054;-59
2022/03/28 00:59:37;;;;;;;7.20;5.95;;;;;;;;;;8152530;28;20037;-59
2022/03/28 01:03:37;;;;;;;8.13;6.00;;;;;;;;;;8151944;28;20094;-59
2022/03/28 01:07:41;;;;;;;7.57;6.00;;;;;;;;;;8150090;28;20026;-59
2022/03/28 01:11:43;;;;;;;11.30;6.72;;;;;;;;;;8150892;29;20134;-59
2022/03/28 01:15:43;;;;;;;7.15;6.38;;;;;;;;;;8149942;28;20670;-59
2022/03/28 01:19:43;;;;;;;12.77;6.77;;;;;;;;;;8150107;28;20386;-58
2022/03/28 01:23:44;;;;;;;7.37;6.60;;;;;;;;;;8149114;28;20028;-59
2022/03/28 01:27:44;;;;;;;7.00;5.85;;;;;;;;;;8149339;29;20323;-58
2022/03/28 01:31:45;;;;;;;8.20;6.10;;;;;;;;;;8147255;28;20066;-58
2022/03/28 01:35:45;;;;;;;9.30;6.35;;;;;;;;;;8151642;28;20042;-59
2022/03/28 01:39:45;;;;;;;7.13;5.97;;;;;;;;;;8148713;29;20102;-59
2022/03/28 01:43:45;;;;;;;10.20;6.65;;;;;;;;;;8151013;29;20027;-59
2022/03/28 01:47:46;;;;;;;8.10;6.70;;;;;;;;;;8149340;28;20041;-59
2022/03/28 01:51:47;;;;;;;10.20;6.72;;;;;;;;;;8149666;28;20122;-59
2022/03/28 01:55:47;;;;;;;9.93;6.88;;;;;;;;;;8150964;29;20574;-58
2022/03/28 01:59:47;;;;;;;9.63;7.38;;;;;;;;;;8149350;29;20035;-58
2022/03/28 02:03:47;;;;;;;9.60;7.28;;;;;;;;;;8149380;28;20168;-58
2022/03/28 02:07:48;;;;;;;9.70;7.10;;;;;;;;;;8148276;29;20027;-58
2022/03/28 02:11:48;;;;;;;9.75;7.45;;;;;;;;;;8149279;28;20034;-59
2022/03/28 02:15:48;;;;;;;11.13;7.40;;;;;;;;;;8148989;28;20675;-58
2022/03/28 02:19:48;;;;;;;8.98;7.43;;;;;;;;;;8149828;28;20024;-58
2022/03/28 02:23:48;;;;;;;12.00;7.70;;;;;;;;;;8151276;28;20023;-58
2022/03/28 02:27:49;;;;;;;9.70;6.95;;;;;;;;;;8146990;28;20023;-58
2022/03/28 02:31:49;;;;;;;9.50;7.75;;;;;;;;;;8149839;28;20544;-58
2022/03/28 02:35:49;;;;;;;12.05;7.55;;;;;;;;;;8146514;28;20412;-59
2022/03/28 02:39:49;;;;;;;10.20;7.38;;;;;;;;;;8147555;29;20031;-58
2022/03/28 02:43:49;;;;;;;9.13;7.20;;;;;;;;;;8147871;28;20161;-58
2022/03/28 02:47:50;;;;;;;9.48;7.13;;;;;;;;;;8147896;28;20747;-59
2022/03/28 02:51:50;;;;;;;11.57;7.03;;;;;;;;;;8148308;28;20398;-58
2022/03/28 02:55:50;;;;;;;11.98;7.38;;;;;;;;;;8148539;28;21083;-58
2022/03/28 02:59:50;;;;;;;7.32;6.50;;;;;;;;;;8149412;29;20678;-58
2022/03/28 03:03:51;;;;;;;7.23;5.80;;;;;;;;;;8147529;28;20074;-58
2022/03/28 03:07:51;;;;;;;11.83;7.50;;;;;;;;;;8148003;29;20523;-58
2022/03/28 03:11:51;;;;;;;10.43;7.15;;;;;;;;;;8145014;28;20281;-58
2022/03/28 03:15:51;;;;;;;7.57;6.65;;;;;;;;;;8146090;28;20039;-58
2022/03/28 03:19:52;;;;;;;9.05;6.80;;;;;;;;;;8146806;28;20137;-58
2022/03/28 03:23:52;;;;;;;10.18;7.53;;;;;;;;;;8148135;28;20750;-58
2022/03/28 03:27:52;;;;;;;9.65;7.22;;;;;;;;;;8148531;28;20038;-58
2022/03/28 03:31:52;;;;;;;9.10;7.05;;;;;;;;;;8149443;28;20130;-58
2022/03/28 03:35:54;;;;;;;9.98;7.32;;;;;;;;;;8149598;28;20450;-58
2022/03/28 03:39:54;;;;;;;9.40;6.95;;;;;;;;;;8149213;29;20030;-58
2022/03/28 03:43:54;;;;;;;10.85;6.65;;;;;;;;;;8149156;28;20125;-58
2022/03/28 03:47:55;;;;;;;11.60;7.78;;;;;;;;;;8147824;28;20047;-58
2022/03/28 03:51:55;;;;;;;8.27;6.90;;;;;;;;;;8148248;28;20450;-58
2022/03/28 03:55:55;;;;;;;9.05;7.15;;;;;;;;;;8149064;28;20624;-59
2022/03/28 03:59:56;;;;;;;11.05;7.90;;;;;;;;;;8148267;29;20034;-57
2022/03/28 04:03:56;;;;;;;8.10;6.43;;;;;;;;;;8149909;28;20051;-58
2022/03/28 04:07:56;;;;;;;10.25;7.68;;;;;;;;;;8146049;28;20291;-58
2022/03/28 04:11:57;;;;;;;9.52;7.10;;;;;;;;;;8150414;29;20042;-58
2022/03/28 04:15:57;;;;;;;11.48;8.32;;;;;;;;;;8145406;28;20059;-58
2022/03/28 04:19:58;;;;;;;8.75;6.95;;;;;;;;;;8148439;28;20418;-58
2022/03/28 04:23:58;;;;;;;11.23;7.90;;;;;;;;;;8149310;28;20038;-58
2022/03/28 04:27:59;;;;;;;11.63;7.97;;;;;;;;;;8155149;28;20028;-58
2022/03/28 04:31:59;;;;;;;12.55;8.02;;;;;;;;;;8151623;28;20036;-59
2022/03/28 04:35:59;;;;;;;9.82;7.63;;;;;;;;;;8154275;28;20035;-58
2022/03/28 04:40:00;;;;;;;8.93;6.85;;;;;;;;;;8153014;28;20038;-58
2022/03/28 04:44:00;;;;;;;11.85;8.15;;;;;;;;;;8154776;28;20552;-59
2022/03/28 04:48:03;;;;;;;10.60;7.97;;;;;;;;;;8153154;28;20039;-58
2022/03/28 04:52:03;;;;;;;12.13;8.80;;;;;;;;;;8150926;28;20038;-58
2022/03/28 04:56:04;;;;;;;12.38;8.35;;;;;;;;;;8152882;29;20027;-58
2022/03/28 05:00:06;;;;;;;14.52;8.43;;;;;;;;;;8151492;28;20083;-58
2022/03/28 05:04:06;;;;;;;15.40;8.85;;;;;;;;;;8152274;28;20617;-60
2022/03/28 05:08:07;;;;;;;15.85;9.52;;;;;;;;;;8154362;29;20019;-58
2022/03/28 05:12:07;;;;;;;12.85;8.50;;;;;;;;;;8152793;28;20716;-58
2022/03/28 05:16:07;;;;;;;14.52;9.30;;;;;;;;;;8151897;28;20768;-58
2022/03/28 05:20:09;;;;;;;15.35;8.65;;;;;;;;;;8151768;28;20145;-58
2022/03/28 05:24:09;;;;;;;12.07;9.02;;;;;;;;;;8152441;28;20033;-58
2022/03/28 05:28:09;;;;;;;11.30;7.78;;;;;;;;;;8150755;28;20050;-58
2022/03/28 05:32:10;;;;;;;10.10;8.15;;;;;;;;;;8148942;28;20497;-59
2022/03/28 05:36:12;;;;;;;12.45;8.27;;;;;;;;;;8148509;28;20063;-59
2022/03/28 05:40:13;;;;;;;13.52;10.07;;;;;;;;;;8150215;28;20125;-60
2022/03/28 05:44:13;;;;;;;15.07;8.15;;;;;;;;;;8149842;28;20031;-59
2022/03/28 05:48:13;;;;;;;17.43;8.93;;;;;;;;;;8150190;28;20046;-58
2022/03/28 05:52:13;;;;;;;15.23;9.43;;;;;;;;;;8148852;28;20125;-58
2022/03/28 05:56:13;;;;;;;13.80;8.82;;;;;;;;;;8150923;29;20032;-58
2022/03/28 06:00:14;;;;;;;12.85;8.75;;;;;;;;;;8148254;28;20059;-60
2022/03/28 06:04:15;;;;;;;13.40;9.23;;;;;;;;;;8148363;28;20034;-59
2022/03/28 06:08:15;;;;;;;12.30;8.90;;;;;;;;;;8150277;28;20393;-59
2022/03/28 06:12:15;;;;;;;10.80;8.90;;;;;;;;;;8149004;28;20839;-59
2022/03/28 06:16:15;;;;;;;12.88;8.50;;;;;;;;;;8148724;28;20039;-59
2022/03/28 06:20:49;;;;;;;16.55;8.82;;;;;;;;;;8148715;28;20280;-62
2022/03/28 06:24:49;;;;;;;17.00;10.10;;;;;;;;;;8158632;28;20031;-59
2022/03/28 06:28:49;;;;;;;15.35;9.27;;;;;;;;;;8157128;29;20023;-60
2022/03/28 06:32:50;;;;;;;17.98;12.07;;;;;;;;;;8159685;28;20031;-60
2022/03/28 06:36:50;;;;;;;16.77;10.38;;;;;;;;;;8147490;29;20031;-61
2022/03/28 06:40:50;;;;;;;17.03;11.70;;;;;;;;;;8153232;28;20027;-60
2022/03/28 06:44:50;;;;;;;20.23;10.75;;;;;;;;;;8147719;29;20370;-60
2022/03/28 06:48:54;;;;;;;13.88;9.88;;;;;;;;;;8147298;28;20036;-60
2022/03/28 06:52:55;;;;;;;14.45;9.05;;;;;;;;;;8148961;28;20035;-61
2022/03/28 06:56:55;;;;;;;17.48;9.70;;;;;;;;;;8157240;29;20532;-60
2022/03/28 07:00:55;;;;;;;9.95;8.18;;;;;;;;;;8151857;28;20036;-60
2022/03/28 07:04:55;;;;;;;12.90;8.40;;;;;;;;;;8149267;28;20098;-60
2022/03/28 07:08:56;;;;;;;10.02;7.57;;;;;;;;;;8147748;29;20027;-60
2022/03/28 07:12:56;;;;;;;9.17;7.00;;;;;;;;;;8146699;28;20035;-60
2022/03/28 07:16:56;;;;;;;8.23;6.78;;;;;;;;;;8145996;28;20035;-60
2022/03/28 07:20:56;;;;;;;8.98;7.13;;;;;;;;;;8143934;28;20106;-60
2022/03/28 07:24:57;;;;;;;9.70;6.60;;;;;;;;;;8145779;29;20045;-60
2022/03/28 07:29:02;;;;;;;9.18;6.90;;;;;;;;;;8147396;28;20026;-60
2022/03/28 07:33:03;;;;;;;12.65;6.97;;;;;;;;;;8147753;28;20289;-60
2022/03/28 07:37:05;;;;;;;10.90;6.82;;;;;;;;;;8146685;29;20105;-60
2022/03/28 07:41:05;;;;;;;10.02;7.45;;;;;;;;;;8148005;29;20027;-60
2022/03/28 07:45:06;;;;;;;15.00;7.10;;;;;;;;;;8148799;28;20145;-61
2022/03/28 07:49:07;;;;;;;10.90;7.43;;;;;;;;;;8144727;28;20030;-60
2022/03/28 07:53:07;;;;;;;10.70;7.70;;;;;;;;;;8146810;28;20043;-60
2022/03/28 07:57:07;;;;;;;15.67;7.17;;;;;;;;;;8144073;28;20038;-60
2022/03/28 08:01:09;;;;;;;9.57;7.32;;;;;;;;;;8148806;28;20085;-60
2022/03/28 08:05:10;;;;;;;11.23;7.65;;;;;;;;;;8150941;29;20492;-60
2022/03/28 08:09:10;;;;;;;11.68;8.30;;;;;;;;;;8149163;28;20027;-60
2022/03/28 08:13:10;;;;;;;10.48;7.40;;;;;;;;;;8150367;29;20086;-60
2022/03/28 08:17:10;;;;;;;10.47;7.83;;;;;;;;;;8148928;28;20452;-60
2022/03/28 08:21:11;;;;;;;12.55;8.20;;;;;;;;;;8149470;28;20073;-60
2022/03/28 08:25:13;;;;;;;9.20;7.97;;;;;;;;;;8150404;28;20035;-60
2022/03/28 08:29:13;;;;;;;8.73;7.47;;;;;;;;;;8150281;29;20330;-60
2022/03/28 08:33:13;;;;;;;8.73;7.35;;;;;;;;;;8147404;28;20070;-60
2022/03/28 08:37:16;;;;;;;9.73;7.33;;;;;;;;;;8150380;28;20047;-60
2022/03/28 08:41:18;;;;;;;10.43;7.05;;;;;;;;;;8148065;29;20043;-60
2022/03/28 08:45:18;;;;;;;8.17;7.37;;;;;;;;;;8150882;28;20465;-60
2022/03/28 08:49:19;;;;;;;10.23;7.30;;;;;;;;;;8147670;28;20666;-60
2022/03/28 08:53:19;;;;;;;8.82;7.93;;;;;;;;;;8147386;29;20031;-60
2022/03/28 08:57:19;;;;;;;9.23;7.73;;;;;;;;;;8150027;28;20468;-60
2022/03/28 09:01:20;;;;;;;9.60;7.90;;;;;;;;;;8147796;28;20108;-59
2022/03/28 09:05:28;;;;;;;10.52;7.63;;;;;;;;;;8147545;28;20047;-60
2022/03/28 09:09:29;;;;;;;11.90;7.80;;;;;;;;;;8146523;28;20111;-59
2022/03/28 09:13:42;;;;;;;12.27;7.97;;;;;;;;;;8147169;28;20132;-59
2022/03/28 09:17:43;;;;;;;9.25;8.20;;;;;;;;;;8149435;28;20856;-59
2022/03/28 09:21:49;;;;;;;10.20;7.90;;;;;;;;;;8148409;28;20031;-59
2022/03/28 09:25:50;;;;;;;9.27;8.32;;;;;;;;;;8148912;29;20274;-59
2022/03/28 09:29:56;;;;;;;12.38;9.25;;;;;;;;;;8146188;29;20062;-59
2022/03/28 09:33:56;;;;;;;9.98;8.90;;;;;;;;;;8146963;28;20078;-59
2022/03/28 09:37:58;;;;;;;9.35;8.02;;;;;;;;;;8149662;28;20031;-59
2022/03/28 09:42:02;;;;;;;10.50;9.40;;;;;;;;;;8147237;29;20051;-59
2022/03/28 09:46:02;;;;;;;12.73;9.10;;;;;;;;;;8145943;28;20047;-59
2022/03/28 09:50:04;;;;;;;11.37;8.90;;;;;;;;;;8146771;28;20043;-59
2022/03/28 09:54:18;;;;;;;12.57;7.93;;;;;;;;;;8148138;28;20031;-59
2022/03/28 09:58:31;;;;;;;10.20;8.20;;;;;;;;;;8147883;28;20042;-59
2022/03/28 10:02:33;;;;;;;11.77;9.45;;;;;;;;;;8146743;28;20047;-60
2022/03/28 10:06:37;;;;;;;14.47;8.93;;;;;;;;;;8144046;28;20434;-59
2022/03/28 10:10:37;;;;;;;11.98;9.25;;;;;;;;;;8145435;28;20032;-59
2022/03/28 10:14:38;;;;;;;11.52;8.98;;;;;;;;;;8146049;28;20036;-59
2022/03/28 10:18:39;;;;;;;11.50;9.73;;;;;;;;;;8146373;28;20035;-59
2022/03/28 10:22:41;;;;;;;13.40;9.32;;;;;;;;;;8147165;28;20030;-58
2022/03/28 10:26:44;;;;;;;10.82;8.10;;;;;;;;;;8146873;29;20027;-59
2022/03/28 10:30:45;;;;;;;12.18;8.20;;;;;;;;;;8145040;28;20039;-59
2022/03/28 10:34:45;;;;;;;11.55;9.20;;;;;;;;;;8146003;28;20031;-59
2022/03/28 10:38:45;;;;;;;10.93;7.73;;;;;;;;;;8146675;28;20034;-59
2022/03/28 10:42:55;;;;;;;11.18;7.72;;;;;;;;;;8144367;28;20205;-59
2022/03/28 10:47:03;;;;;;;11.52;6.00;;;;;;;;;;8145133;28;20848;-60
2022/03/28 10:51:08;;;;;;;12.80;6.18;;;;;;;;;;8145070;28;20054;-60
2022/03/28 10:55:08;;;;;;;9.63;6.35;;;;;;;;;;8145291;28;20039;-60
2022/03/28 10:59:11;;;;;;;13.10;6.88;;;;;;;;;;8146374;29;20106;-60
2022/03/28 11:03:31;;;;;;;11.53;6.53;;;;;;;;;;8143812;28;20035;-60
2022/03/28 11:07:31;;;;;;;11.02;6.43;;;;;;;;;;8146796;28;20373;-60
2022/03/28 11:11:33;;;;;;;11.77;6.57;;;;;;;;;;8144723;28;20134;-60
2022/03/28 11:15:36;;;;;;;7.38;5.75;;;;;;;;;;8143415;28;20032;-59
2022/03/28 11:19:50;;;;;;;10.68;5.75;;;;;;;;;;8143931;28;20027;-59
2022/03/28 11:24:06;;;;;;;9.25;5.82;;;;;;;;;;8145055;29;20034;-59
2022/03/28 11:28:12;;;;;;;11.48;6.15;;;;;;;;;;8146496;28;20028;-59
2022/03/28 11:32:16;;;;;;;8.70;5.68;;;;;;;;;;8144464;28;20306;-60
2022/03/28 11:36:22;;;;;;;10.77;6.22;;;;;;;;;;8148674;29;20039;-59
2022/03/28 11:40:22;;;;;;;10.18;5.13;;;;;;;;;;8146645;28;20352;-59
2022/03/28 11:44:24;;;;;;;9.07;5.00;;;;;;;;;;8148933;28;20430;-59
2022/03/28 11:48:24;;;;;;;7.82;5.38;;;;;;;;;;8149877;28;20075;-59
2022/03/28 11:52:26;;;;;;;9.27;6.03;;;;;;;;;;8150308;28;20034;-59
2022/03/28 11:56:30;;;;;;;8.50;5.90;;;;;;;;;;8148856;29;20154;-59
2022/03/28 12:00:31;;;;;;;10.32;6.22;;;;;;;;;;8149762;28;20047;-59
2022/03/28 12:04:31;;;;;;;7.40;5.40;;;;;;;;;;8153298;29;20058;-60
2022/03/28 12:08:31;;;;;;;8.98;6.03;;;;;;;;;;8149436;28;20033;-59
2022/03/28 12:12:31;;;;;;;9.27;5.97;;;;;;;;;;8153435;28;20133;-60
2022/03/28 12:16:31;;;;;;;9.68;6.38;;;;;;;;;;8149560;28;20032;-59
2022/03/28 12:20:33;;;;;;;9.93;5.68;;;;;;;;;;8148901;28;20023;-59
2022/03/28 12:24:33;;;;;;;9.93;6.28;;;;;;;;;;8152150;28;20035;-59
2022/03/28 12:28:34;;;;;;;9.90;6.57;;;;;;;;;;8153512;28;20117;-59
2022/03/28 12:32:35;;;;;;;12.38;6.43;;;;;;;;;;8151928;28;20040;-59
2022/03/28 12:36:35;;;;;;;7.40;5.45;;;;;;;;;;8153174;29;20114;-60
2022/03/28 12:40:36;;;;;;;9.20;5.40;;;;;;;;;;8151249;29;20043;-60
2022/03/28 12:44:38;;;;;;;10.82;5.95;;;;;;;;;;8151552;28;20295;-59
2022/03/28 12:48:40;;;;;;;9.88;5.55;;;;;;;;;;8154170;28;20118;-59
2022/03/28 12:52:41;;;;;;;9.20;5.38;;;;;;;;;;8152907;28;20082;-59
2022/03/28 12:56:58;;;;;;;11.07;5.85;;;;;;;;;;8153416;28;20038;-59
2022/03/28 13:01:02;;;;;;;11.10;6.05;;;;;;;;;;8150500;28;20046;-59
2022/03/28 13:05:03;;;;;;;9.60;5.50;;;;;;;;;;8152269;28;20031;-59
2022/03/28 13:09:04;;;;;;;7.30;5.40;;;;;;;;;;8149426;28;20047;-59
2022/03/28 13:13:08;;;;;;;9.30;6.25;;;;;;;;;;8150983;28;20495;-60
2022/03/28 13:17:12;;;;;;;9.77;5.75;;;;;;;;;;8150753;28;20165;-59
2022/03/28 13:21:14;;;;;;;8.52;6.00;;;;;;;;;;8152321;28;20039;-59
2022/03/28 13:25:20;;;;;;;7.63;6.00;;;;;;;;;;8152206;29;20079;-59
2022/03/28 13:29:23;;;;;;;12.35;5.82;;;;;;;;;;8150232;28;20090;-59
2022/03/28 13:33:24;;;;;;;14.57;6.32;;;;;;;;;;8150244;28;20216;-59
2022/03/28 13:37:24;;;;;;;10.48;6.47;;;;;;;;;;8150301;28;20112;-58
2022/03/28 13:41:24;;;;;;;8.07;5.63;;;;;;;;;;8152307;28;20527;-59
2022/03/28 13:45:25;;;;;;;11.90;6.57;;;;;;;;;;8150540;28;20058;-59
2022/03/28 13:49:25;;;;;;;10.27;6.22;;;;;;;;;;8146756;28;20028;-59
2022/03/28 13:53:25;;;;;;;8.88;5.93;;;;;;;;;;8151719;29;20028;-59
2022/03/28 13:57:28;;;;;;;9.07;6.00;;;;;;;;;;8149137;28;20038;-58
2022/03/28 14:01:29;;;;;;;8.35;6.07;;;;;;;;;;8150649;28;20040;-58
2022/03/28 14:05:30;;;;;;;12.93;7.10;;;;;;;;;;8146909;28;20027;-60
2022/03/28 14:09:30;;;;;;;10.13;6.90;;;;;;;;;;8144715;28;20145;-58
2022/03/28 14:13:30;;;;;;;9.13;6.20;;;;;;;;;;8148156;29;20043;-59
2022/03/28 14:17:31;;;;;;;10.15;6.20;;;;;;;;;;8145592;28;20050;-58
2022/03/28 14:21:32;;;;;;;11.27;6.60;;;;;;;;;;8147932;28;20061;-59
2022/03/28 14:25:32;;;;;;;10.57;6.93;;;;;;;;;;8150057;28;20024;-59
2022/03/28 14:29:32;;;;;;;8.68;6.00;;;;;;;;;;8149697;28;20026;-59
2022/03/28 14:33:32;;;;;;;8.45;6.40;;;;;;;;;;8148424;28;20110;-59
2022/03/28 14:37:34;;;;;;;13.32;6.57;;;;;;;;;;8149813;29;20108;-59
2022/03/28 14:41:36;;;;;;;10.93;7.13;;;;;;;;;;8147388;28;20758;-59
2022/03/28 14:49:55;;;;;;;15.13;7.47;;;;;;;;;;8146488;28;20901;-59
2022/03/28 14:53:55;;;;;;;9.98;6.90;;;;;;;;;;8144935;28;20067;-59
2022/03/28 14:57:55;;;;;;;10.57;6.63;;;;;;;;;;8147446;29;20409;-59
2022/03/28 15:01:56;;;;;;;11.05;6.57;;;;;;;;;;8147370;28;20039;-59
2022/03/28 15:05:56;;;;;;;10.90;6.90;;;;;;;;;;8146814;28;21030;-59
2022/03/28 15:09:56;;;;;;;10.52;7.18;;;;;;;;;;8146148;28;20035;-59
2022/03/28 15:13:56;;;;;;;10.32;6.82;;;;;;;;;;8146667;28;20035;-59
2022/03/28 15:17:57;;;;;;;11.87;7.23;;;;;;;;;;8142661;28;20158;-59
2022/03/28 15:22:02;;;;;;;9.38;6.60;;;;;;;;;;8143899;28;20031;-59
2022/03/28 15:26:05;;;;;;;8.80;6.13;;;;;;;;;;8145293;28;20046;-59
2022/03/28 15:30:06;;;;;;;9.68;7.05;;;;;;;;;;8143151;28;20477;-58
2022/03/28 15:34:10;;;;;;;11.10;7.03;;;;;;;;;;8146808;28;20515;-61
2022/03/28 15:38:10;;;;;;;11.38;6.63;;;;;;;;;;8142914;28;20039;-59
2022/03/28 15:42:10;;;;;;;12.02;7.10;;;;;;;;;;8140734;28;20054;-59
2022/03/28 15:46:12;;;;;;;11.18;6.78;;;;;;;;;;8144320;28;20133;-58
2022/03/28 15:50:14;;;;;;;9.60;6.88;;;;;;;;;;8145201;28;20059;-59
2022/03/28 15:54:15;;;;;;;11.63;7.63;;;;;;;;;;8145080;28;20498;-58
2022/03/28 15:58:16;;;;;;;9.30;6.72;;;;;;;;;;8171436;28;20027;-58
2022/03/28 16:02:17;;;;;;;12.35;7.03;;;;;;;;;;8150457;28;20037;-59
2022/03/28 16:06:17;;;;;;;10.45;7.13;;;;;;;;;;8145659;28;20035;-58
2022/03/28 16:10:17;;;;;;;12.73;7.32;;;;;;;;;;8143896;28;20027;-59
2022/03/28 16:14:18;;;;;;;13.23;7.67;;;;;;;;;;8150941;28;20027;-59
2022/03/28 16:18:18;;;;;;;12.77;7.63;;;;;;;;;;8145711;28;20047;-59
2022/03/28 16:22:18;;;;;;;13.30;8.20;;;;;;;;;;8147703;28;20813;-58
2022/03/28 16:26:19;;;;;;;14.52;8.23;;;;;;;;;;8155596;28;20031;-58
2022/03/28 16:30:19;;;;;;;13.20;8.02;;;;;;;;;;8152952;28;20073;-58
2022/03/28 16:34:19;;;;;;;10.73;7.60;;;;;;;;;;8152392;29;20476;-58
2022/03/28 16:38:21;;;;;;;12.23;7.63;;;;;;;;;;8154251;28;20779;-59
2022/03/28 16:42:21;;;;;;;11.25;7.40;;;;;;;;;;8151704;29;20182;-59
2022/03/28 16:46:22;;;;;;;16.23;7.78;;;;;;;;;;8151711;28;20148;-58
2022/03/28 16:50:22;;;;;;;10.35;7.35;;;;;;;;;;8156593;28;20054;-59
2022/03/28 16:54:23;;;;;;;11.57;7.18;;;;;;;;;;8153794;28;20044;-59
2022/03/28 16:58:23;;;;;;;10.18;6.97;;;;;;;;;;8157806;28;20500;-58
2022/03/28 17:02:23;;;;;;;11.88;7.13;;;;;;;;;;8162031;28;20143;-58
2022/03/28 17:06:24;;;;;;;12.00;7.82;;;;;;;;;;8149374;28;20040;-58
2022/03/28 17:10:30;;;;;;;12.68;6.40;;;;;;;;;;8148659;28;20061;-58
2022/03/28 17:14:30;;;;;;;11.38;7.05;;;;;;;;;;8148163;28;20031;-58
2022/03/28 17:18:30;;;;;;;11.00;7.28;;;;;;;;;;8147768;28;20839;-58
2022/03/28 17:22:31;;;;;;;12.83;6.83;;;;;;;;;;8147238;28;20027;-58
2022/03/28 17:26:31;;;;;;;11.17;7.17;;;;;;;;;;8149209;28;20407;-58
2022/03/28 17:30:32;;;;;;;9.90;6.78;;;;;;;;;;8149036;28;20510;-58
2022/03/28 17:34:32;;;;;;;12.45;7.30;;;;;;;;;;8147926;28;20121;-58
2022/03/28 17:38:32;;;;;;;10.97;7.03;;;;;;;;;;8148814;28;20031;-58
2022/03/28 17:42:33;;;;;;;12.03;6.20;;;;;;;;;;8149543;28;20042;-58
2022/03/28 17:46:34;;;;;;;13.63;6.38;;;;;;;;;;8147463;28;20293;-58
2022/03/28 17:50:34;;;;;;;9.07;5.60;;;;;;;;;;8147014;28;20047;-58
2022/03/28 17:54:34;;;;;;;8.52;5.55;;;;;;;;;;8147328;28;20023;-58
2022/03/28 17:58:35;;;;;;;12.45;6.40;;;;;;;;;;8148879;28;20118;-58
2022/03/28 18:02:35;;;;;;;19.05;7.05;;;;;;;;;;8145959;28;20039;-58
2022/03/28 18:06:35;;;;;;;11.80;7.03;;;;;;;;;;8147008;28;20023;-58
2022/03/28 18:10:36;;;;;;;12.48;6.57;;;;;;;;;;8144137;28;20027;-58
2022/03/28 18:14:36;;;;;;;17.27;6.50;;;;;;;;;;8146141;28;20023;-58
2022/03/28 18:18:36;;;;;;;14.73;6.80;;;;;;;;;;8145323;28;20275;-58
2022/03/28 18:22:40;;;;;;;10.40;5.57;;;;;;;;;;8144142;28;20650;-58
2022/03/28 18:26:40;;;;;;;9.63;5.65;;;;;;;;;;8145901;28;20024;-58
2022/03/28 18:30:41;;;;;;;22.15;5.97;;;;;;;;;;8145405;28;20278;-58
2022/03/28 18:34:41;;;;;;;13.97;5.60;;;;;;;;;;8146625;28;20031;-58
2022/03/28 18:38:41;;;;;;;14.45;5.75;;;;;;;;;;8144127;28;20371;-58
2022/03/28 18:42:42;;;;;;;13.50;5.60;;;;;;;;;;8147251;28;20749;-58
2022/03/28 18:46:42;;;;;;;9.70;5.65;;;;;;;;;;8146681;28;20074;-58
2022/03/28 18:50:43;;;;;;;10.70;5.18;;;;;;;;;;8144418;28;20039;-58
2022/03/28 18:54:43;;;;;;;10.93;5.45;;;;;;;;;;8145073;28;20505;-58
2022/03/28 18:58:44;;;;;;;10.80;5.57;;;;;;;;;;8147362;28;20027;-58
2022/03/28 19:02:45;;;;;;;8.80;5.50;;;;;;;;;;8145428;28;20028;-58
2022/03/28 19:06:45;;;;;;;8.07;4.95;;;;;;;;;;8145444;28;20039;-58
2022/03/28 19:10:45;;;;;;;13.18;5.30;;;;;;;;;;8143993;28;20031;-58
2022/03/28 19:14:46;;;;;;;8.88;5.15;;;;;;;;;;8146544;28;20909;-58
2022/03/28 19:18:46;;;;;;;9.73;5.53;;;;;;;;;;8141710;28;20050;-58
2022/03/28 19:22:47;;;;;;;9.35;5.20;;;;;;;;;;8144003;28;20031;-58
2022/03/28 19:26:47;;;;;;;8.80;5.90;;;;;;;;;;8144609;28;20481;-58
2022/03/28 19:30:47;;;;;;;8.23;5.33;;;;;;;;;;8144059;28;20031;-58
2022/03/28 19:34:48;;;;;;;6.63;4.70;;;;;;;;;;8145436;28;20312;-58
2022/03/28 19:38:48;;;;;;;12.40;5.03;;;;;;;;;;8144211;28;20542;-58
2022/03/28 19:42:49;;;;;;;8.93;5.28;;;;;;;;;;8141796;28;20557;-58
2022/03/28 19:46:50;;;;;;;9.82;5.47;;;;;;;;;;8143529;28;20047;-58
2022/03/28 19:50:50;;;;;;;9.93;5.50;;;;;;;;;;8141911;28;20054;-58
2022/03/28 19:54:51;;;;;;;12.40;6.22;;;;;;;;;;8145580;28;20492;-58
2022/03/28 19:58:51;;;;;;;9.48;5.75;;;;;;;;;;8150247;28;20335;-58
2022/03/28 20:02:51;;;;;;;13.00;5.88;;;;;;;;;;8152191;28;20032;-58
2022/03/28 20:06:52;;;;;;;9.15;5.80;;;;;;;;;;8153190;28;20070;-58
2022/03/28 20:10:52;;;;;;;10.40;6.15;;;;;;;;;;8154242;28;20389;-58
2022/03/28 20:14:52;;;;;;;12.18;5.90;;;;;;;;;;8152078;29;20133;-58
2022/03/28 20:18:52;;;;;;;12.55;6.28;;;;;;;;;;8152102;28;20035;-58
2022/03/28 20:22:53;;;;;;;11.60;6.65;;;;;;;;;;8150462;28;20031;-58
2022/03/28 20:26:53;;;;;;;10.90;6.33;;;;;;;;;;8153189;28;20473;-58
2022/03/28 20:30:53;;;;;;;11.73;6.82;;;;;;;;;;8152459;28;20984;-58
2022/03/28 20:34:53;;;;;;;8.50;5.82;;;;;;;;;;8153007;29;20031;-58
2022/03/28 20:38:54;;;;;;;9.10;6.22;;;;;;;;;;8154109;28;20063;-58
2022/03/28 20:42:54;;;;;;;11.73;6.07;;;;;;;;;;8153419;28;20031;-58
2022/03/28 20:46:54;;;;;;;14.80;5.80;;;;;;;;;;8151269;28;20290;-58
2022/03/28 20:50:57;;;;;;;8.82;5.53;;;;;;;;;;8152256;28;20031;-58
2022/03/28 20:54:57;;;;;;;9.43;5.70;;;;;;;;;;8150630;29;20825;-58
2022/03/28 20:58:58;;;;;;;10.90;6.25;;;;;;;;;;8153083;28;20031;-58
2022/03/28 21:02:59;;;;;;;8.73;5.38;;;;;;;;;;8150009;28;20036;-58
2022/03/28 21:07:00;;;;;;;9.93;5.50;;;;;;;;;;8150982;28;20031;-58
2022/03/28 21:11:02;;;;;;;13.65;5.15;;;;;;;;;;8149613;28;20135;-58
2022/03/28 21:15:03;;;;;;;8.95;4.97;;;;;;;;;;8151584;28;20089;-58
2022/03/28 21:19:03;;;;;;;9.30;4.95;;;;;;;;;;8151617;28;20027;-58
2022/03/28 21:23:05;;;;;;;11.77;5.88;;;;;;;;;;8152217;28;20058;-58
2022/03/28 21:27:05;;;;;;;11.10;5.53;;;;;;;;;;8151035;28;20066;-58
2022/03/28 21:31:05;;;;;;;10.90;5.82;;;;;;;;;;8151051;28;20039;-58
2022/03/28 21:35:06;;;;;;;14.77;6.38;;;;;;;;;;8151216;29;20031;-58
2022/03/28 21:39:06;;;;;;;10.55;6.57;;;;;;;;;;8151512;28;20034;-58
2022/03/28 21:43:07;;;;;;;13.13;7.05;;;;;;;;;;8151401;28;20150;-58
2022/03/28 21:47:07;;;;;;;14.68;7.97;;;;;;;;;;8150753;28;20049;-57
2022/03/28 21:51:08;;;;;;;13.50;7.93;;;;;;;;;;8148728;28;20155;-58
2022/03/28 21:55:08;;;;;;;15.02;8.65;;;;;;;;;;8152689;28;20283;-58
2022/03/28 21:59:08;;;;;;;14.98;9.23;;;;;;;;;;8152274;28;20071;-58
2022/03/28 22:03:08;;;;;;;17.30;9.20;;;;;;;;;;8148776;28;20968;-58
2022/03/28 22:07:09;;;;;;;24.45;9.45;;;;;;;;;;8149376;29;20031;-57
2022/03/28 22:11:09;;;;;;;20.88;10.82;;;;;;;;;;8149007;28;20039;-58
2022/03/28 22:15:09;;;;;;;22.65;10.95;;;;;;;;;;8164299;28;20041;-58
2022/03/28 22:19:09;;;;;;;18.10;9.68;;;;;;;;;;8150847;28;20036;-58
2022/03/28 22:23:10;;;;;;;17.80;9.98;;;;;;;;;;8149075;28;20037;-58
2022/03/28 22:27:10;;;;;;;18.45;8.68;;;;;;;;;;8149789;28;20268;-58
2022/03/28 22:31:10;;;;;;;20.70;10.60;;;;;;;;;;8150725;28;20047;-58
2022/03/28 22:35:11;;;;;;;19.88;10.32;;;;;;;;;;8149321;29;20884;-58
2022/03/28 22:39:11;;;;;;;22.67;10.90;;;;;;;;;;8151269;28;20039;-58
2022/03/28 22:43:11;;;;;;;22.90;10.77;;;;;;;;;;8149113;29;20046;-58
2022/03/28 22:47:13;;;;;;;22.52;11.30;;;;;;;;;;8148797;28;20300;-58
2022/03/28 22:51:13;;;;;;;22.45;12.10;;;;;;;;;;8149286;28;20038;-58
2022/03/28 22:55:13;;;;;;;20.10;11.00;;;;;;;;;;8147603;29;20028;-58
2022/03/28 22:59:13;;;;;;;26.10;11.63;;;;;;;;;;8147628;29;20035;-58
2022/03/28 23:03:14;;;;;;;20.17;11.82;;;;;;;;;;8147252;28;20166;-58
2022/03/28 23:07:15;;;;;;;28.05;12.38;;;;;;;;;;8147613;28;20027;-58
2022/03/28 23:11:15;;;;;;;29.55;12.32;;;;;;;;;;8148136;29;20031;-58
2022/03/28 23:15:15;;;;;;;21.70;12.37;;;;;;;;;;8148823;28;20210;-59
2022/03/28 23:19:16;;;;;;;26.52;13.48;;;;;;;;;;8145953;28;20996;-58
2022/03/28 23:23:16;;;;;;;22.70;12.43;;;;;;;;;;8148583;28;20293;-58
2022/03/28 23:27:16;;;;;;;25.13;12.93;;;;;;;;;;8148413;29;20031;-58
2022/03/28 23:31:17;;;;;;;27.42;13.70;;;;;;;;;;8145016;28;20036;-58
2022/03/28 23:35:17;;;;;;;32.65;14.55;;;;;;;;;;8147020;28;20066;-58
2022/03/28 23:39:17;;;;;;;26.55;14.25;;;;;;;;;;8146715;29;20576;-58
2022/03/28 23:43:18;;;;;;;26.40;13.25;;;;;;;;;;8113006;28;1054176;-58
2022/03/28 23:47:18;;;;;;;30.70;14.52;;;;;;;;;;8149909;28;20047;-58
2022/03/28 23:51:18;;;;;;;30.00;14.63;;;;;;;;;;8145597;28;20082;-57
2022/03/28 23:55:19;;;;;;;28.57;14.90;;;;;;;;;;8149629;29;20816;-58